Lyons, NY

13:52 EDT le 23 octobre 2014 (GMT -0400)
Lyons | Change Station
CLOSE
Current Station
Personal Weather Stations
Location: Lyons, NY
Elevation: 503 ft
Nearby Weather Stations

Elev 503 ft 43.14 °N, 77.00 °W | Updated 7 seconds ago

Couvert
Couvert
54.3 °F
Feels Like 54.3 °F
N
3.5
Vent Variable Vent from Ouest
Gusts 3.5 mph

High -- | Low -- °F
--% Risque de précip.
Hier
High -- | Low -- °F
Precip. -- pouce
7:31 AM 6:12 PM
Waning Crescent, 0% visible
Pression 29.98 pouce
Visibilité 10.0 Miles
Nuages Nuages épars 2200 ft
Couvert 4600 ft
Point de rosée 46 °F
Humidité 75%
Rainfall 0.00 pouce
Profondeur de la couche neigeuse Not available.
UV 1 out of 12
Pollen .10 out of 12
Not available.
Flu Activity Sporadic
SPECI KPEO 231725Z AUTO 33013G26KT 10SM SCT022 OVC046 12/06 A2998 RMK AO2 PK WND 32026/1711 T01170056

More Conditions Fewer Conditions

Pression 29.98 pouce
Visibilité 10.0 Miles
Nuages Nuages épars 2200 ft
Couvert 4600 ft
Point de rosée 46 °F
Humidité 75%
Rainfall 0.00 pouce
Profondeur de la couche neigeuse Not available.
UV 1 out of 12
Pollen .10 out of 12
Not available.
Flu Activity Sporadic
SPECI KPEO 231725Z AUTO 33013G26KT 10SM SCT022 OVC046 12/06 A2998 RMK AO2 PK WND 32026/1711 T01170056

More Conditions Fewer Conditions

10-Day Weather Forecast

Almanac

Astronomie

Oct. 23, 2014 Rise Set
Temps réel 07:31 EDT 18:12 EDT
Crépuscule civil 07:02 EDT 18:41 EDT
Crépuscule nautique 06:29 EDT 19:14 EDT
Crépuscule astronomique 05:56 EDT 19:47 EDT
Lune 07:08 EDT 18:12 EDT
Durée de lumière visible 11h 39m
Longueur du jour
10h 41m
Tomorrow will be 2m 44s shorter.
Waning Crescent, 0% of the Moon is Illuminated
Waning Crescent
Oct 23
New
Oct 30
Premier quartier
Nov 6
Pleine lune
Nov 14
Dernier quartier

State Highs State Lows

Community

WunderPhotos

Upload Photos

1,764,322 photos uploaded!

WunderBlogs® & News

By Dr. Jeff Masters
Director of Meteorology, Weather Underground
By Kari Strenfel
Meteorologist, Weather Underground
By Christopher C. Burt
Weather Historian, Weather Underground
October 23, 2014
October 23, 2014
October 23, 2014

Nearby

Profondeur de la couche de neige

Station Depth Elevation
No new snow has been reported.

Earthquake Activity

Ville Distance Mag. Time & Date
No recent earthquake activity has been reported nearby.
Minimum magnitude displayed is 2.5.

Coastal Water Temperatures

Lieu Les températures
Buffalo, NY 57.0 °F
Alexandria Bay, NY 57.0 °F

Nearby Weather Stations